CYHD

Dryden Regional Airport

Dryden, Ontario, Canada
METAR CYHD 190800Z AUTO 24009KT 9SM SCT210 OVC230 10/04 A2959 RMK SLP030 DENSITY ALT 1400FT
Observed Flight Rules
Oct-19 @ 08:00 UTC (an hour ago) Visual Flight Rules
Wind Visibility Clouds
240° at 9 knots 9 miles
  • Scattered at 21,000' AGL
  • Overcast at 23,000' AGL
Temperatures Readings
Current 10°C / 50°F
Dewpoint 4°C / 39°F
Humidity 67%
Altimeter 29.59" Hg
Pressure 1003 hPa
Elevation 413
METAR CYHD 190800Z AUTO 24009KT 9SM SCT210 OVC230 10/04 A2959 RMK SLP030 DENSITY ALT 1400FT
Observed Flight Rules
Oct-19 @ 08:00 UTC
(an hour ago)
VFR
Wind Visibility
240° at 9 knots 9 miles
Clouds
  • Scattered at 21,000' AGL
  • Overcast at 23,000' AGL
Temperature Dewpoint
10°C / 50°F 4°C / 39°F
Humidity Altimeter Pressure
67% 29.59" Hg 1003 hPa